Time;durP1;ratioP1;P1;durP2;ratioP2;P2;SDS_P1;SDS_P2;PMS_P1;PMS_P2;Temp;Humidity;BMP_temperature;BMP_pressure;BME280_temperature;BME280_humidity;BME280_pressure;Samples;Min_cycle;Max_cycle;Signal;HPM_P1;HPM_P2
2022/01/06 00:00:13;;;;;;;;;;;205.60;2252.80;;;;;;4960204;28;19921;-77
2022/01/06 00:02:39;;;;;;;;;;;205.60;2252.80;;;;;;4978217;28;19993;-80
2022/01/06 00:05:05;;;;;;;;;;;205.70;2252.80;;;;;;4978307;28;19949;-79
2022/01/06 00:07:31;;;;;;;;;;;205.70;2252.80;;;;;;4964930;28;19913;-76
2022/01/06 00:09:57;;;;;;;;;;;205.70;2252.80;;;;;;4958521;29;19993;-77
2022/01/06 00:12:29;;;;;;;;;;;205.50;2252.80;;;;;;4958597;29;19944;-80
2022/01/06 00:15:01;;;;;;;;;;;205.50;2252.80;;;;;;4941112;29;20366;-75
2022/01/06 00:25:30;;;;;;;;;;;205.30;2252.80;;;;;;4977621;28;19940;-76
2022/01/06 00:27:55;;;;;;;;;;;205.50;2252.80;;;;;;4977516;28;19960;-78
2022/01/06 00:30:21;;;;;;;;;;;205.40;2252.80;;;;;;4977365;28;19914;-79
2022/01/06 00:32:46;;;;;;;;;;;205.50;2252.80;;;;;;4977200;28;19912;-79
2022/01/06 00:35:12;;;;;;;;;;;205.70;2252.80;;;;;;4959930;28;19917;-77
2022/01/06 00:37:38;;;;;;;;;;;205.60;2252.80;;;;;;4976405;28;20346;-78
2022/01/06 00:40:04;;;;;;;;;;;230.40;2252.80;;;;;;4968974;28;19925;-78
2022/01/06 00:42:29;;;;;;;;;;;205.70;2252.80;;;;;;4977366;28;19913;-80
2022/01/06 00:44:55;;;;;;;;;;;205.60;2252.80;;;;;;4969443;28;19911;-78
2022/01/06 00:47:21;;;;;;;;;;;205.50;2252.80;;;;;;4968329;28;20374;-79
2022/01/06 00:49:46;;;;;;;;;;;205.60;2252.80;;;;;;4966081;28;19917;-75
2022/01/06 00:52:12;;;;;;;;;;;205.50;2252.80;;;;;;4965988;28;20669;-80
2022/01/06 00:54:38;;;;;;;;;;;205.40;2252.80;;;;;;4966021;28;19910;-80
2022/01/06 00:57:04;;;;;;;;;;;205.30;2252.80;;;;;;4966252;28;19913;-80
2022/01/06 00:59:30;;;;;;;;;;;205.30;2252.80;;;;;;4966256;28;19914;-79
2022/01/06 01:01:55;;;;;;;;;;;205.40;2252.80;;;;;;4966023;28;19906;-77
2022/01/06 01:04:21;;;;;;;;;;;205.40;2252.80;;;;;;4967565;28;19906;-78
2022/01/06 01:06:47;;;;;;;;;;;205.50;2252.80;;;;;;4966938;28;20378;-77
2022/01/06 01:09:12;;;;;;;;;;;205.50;2252.80;;;;;;4963838;28;19912;-79
2022/01/06 01:11:38;;;;;;;;;;;205.40;2252.80;;;;;;4967484;28;19906;-76
2022/01/06 01:14:17;;;;;;;;;;;205.40;2252.80;;;;;;4965540;28;19907;-79
2022/01/06 01:16:52;;;;;;;;;;;205.40;2252.80;;;;;;4965504;28;19906;-79
2022/01/06 01:19:18;;;;;;;;;;;205.70;2252.80;;;;;;4965675;28;19922;-75
2022/01/06 01:21:43;;;;;;;;;;;205.30;2252.80;;;;;;4966860;28;19922;-78
2022/01/06 01:24:09;;;;;;;;;;;205.20;2252.80;;;;;;4968065;28;20363;-80
2022/01/06 01:26:35;;;;;;;;;;;205.20;2252.80;;;;;;4965264;28;20338;-81
2022/01/06 01:29:00;;;;;;;;;;;205.10;2252.80;;;;;;4966603;28;19906;-82
2022/01/06 01:31:30;;;;;;;;;;;204.90;2252.80;;;;;;4966256;28;19993;-81
2022/01/06 01:33:58;;;;;;;;;;;204.90;2252.80;;;;;;4967942;28;19914;-82
2022/01/06 01:36:24;;;;;;;;;;;204.80;2252.80;;;;;;4965311;28;19910;-83
2022/01/06 01:38:50;;;;;;;;;;;205.00;2252.80;;;;;;4980933;28;19996;-82
2022/01/06 01:41:15;;;;;;;;;;;180.10;2252.80;;;;;;4968605;28;19913;-82
2022/01/06 01:43:43;;;;;;;;;;;204.80;2252.80;;;;;;4968149;28;20058;-81
2022/01/06 01:46:12;;;;;;;;;;;204.90;2252.80;;;;;;4966727;28;19906;-81
2022/01/06 01:48:42;;;;;;;;;;;204.80;2252.80;;;;;;4965871;28;19913;-76
2022/01/06 01:51:08;;;;;;;;;;;205.00;2252.80;;;;;;4967402;28;19961;-83
2022/01/06 01:53:35;;;;;;;;;;;180.10;2252.80;;;;;;4966163;28;19910;-75
2022/01/06 01:56:00;;;;;;;;;;;180.00;2252.80;;;;;;4965086;28;19906;-81
2022/01/06 01:58:26;;;;;;;;;;;180.00;2252.80;;;;;;4967353;28;20255;-81
2022/01/06 02:00:52;;;;;;;;;;;180.00;2252.80;;;;;;4947184;28;20441;-82
2022/01/06 02:03:17;;;;;;;;;;;180.10;2252.80;;;;;;4966267;28;20374;-77
2022/01/06 02:05:43;;;;;;;;;;;179.90;2252.80;;;;;;4964977;28;19969;-78
2022/01/06 02:08:09;;;;;;;;;;;180.00;2252.80;;;;;;4966445;28;19906;-75
2022/01/06 02:10:35;;;;;;;;;;;179.90;2252.80;;;;;;4966090;28;19907;-76
2022/01/06 02:13:01;;;;;;;;;;;180.00;2252.80;;;;;;4947623;28;19906;-76
2022/01/06 02:15:27;;;;;;;;;;;180.10;2252.80;;;;;;4964695;28;19907;-75
2022/01/06 02:17:53;;;;;;;;;;;180.10;2252.80;;;;;;4967522;28;19973;-81
2022/01/06 02:20:20;;;;;;;;;;;179.90;2252.80;;;;;;4964785;28;20357;-78
2022/01/06 02:22:46;;;;;;;;;;;180.00;2252.80;;;;;;4966178;28;20286;-78
2022/01/06 02:25:26;;;;;;;;;;;180.10;2252.80;;;;;;4947736;28;20251;-75
2022/01/06 02:27:52;;;;;;;;;;;180.00;2252.80;;;;;;4951218;28;19922;-80
2022/01/06 02:30:18;;;;;;;;;;;204.80;2252.80;;;;;;4967338;28;19992;-77
2022/01/06 02:32:44;;;;;;;;;;;204.80;2252.80;;;;;;4963253;28;20366;-77
2022/01/06 02:35:14;;;;;;;;;;;204.80;2252.80;;;;;;4956158;29;19913;-79
2022/01/06 02:37:40;;;;;;;;;;;180.10;2252.80;;;;;;4956158;29;20318;-77
2022/01/06 02:40:10;;;;;;;;;;;180.10;2252.80;;;;;;4955834;28;19919;-80
2022/01/06 02:42:40;;;;;;;;;;;180.00;2252.80;;;;;;4956452;29;19907;-81
2022/01/06 02:45:06;;;;;;;;;;;180.00;2252.80;;;;;;4956259;29;19913;-81
2022/01/06 02:47:32;;;;;;;;;;;179.90;2252.80;;;;;;4939290;29;19989;-77
2022/01/06 02:49:58;;;;;;;;;;;179.80;2252.80;;;;;;4955932;29;20319;-79
2022/01/06 02:52:23;;;;;;;;;;;179.90;2252.80;;;;;;4939201;29;19918;-75
2022/01/06 02:54:49;;;;;;;;;;;179.70;2252.80;;;;;;4956059;29;20318;-78
2022/01/06 02:57:14;;;;;;;;;;;179.70;2252.80;;;;;;4956084;29;19934;-81
2022/01/06 02:59:40;;;;;;;;;;;179.70;2252.80;;;;;;4956702;28;19937;-76
2022/01/06 03:02:06;;;;;;;;;;;179.70;2252.80;;;;;;4959602;29;19906;-78
2022/01/06 03:04:31;;;;;;;;;;;179.80;2252.80;;;;;;4959811;29;20000;-76
2022/01/06 03:06:57;;;;;;;;;;;179.60;2252.80;;;;;;4967990;28;19917;-77
2022/01/06 03:09:35;;;;;;;;;;;179.60;2252.80;;;;;;4978637;28;19980;-78
2022/01/06 03:12:01;;;;;;;;;;;179.70;2252.80;;;;;;4978874;28;19945;-75
2022/01/06 03:14:26;;;;;;;;;;;179.50;2252.80;;;;;;4978463;28;19913;-78
2022/01/06 03:16:52;;;;;;;;;;;179.50;2252.80;;;;;;4978861;28;19906;-77
2022/01/06 03:19:17;;;;;;;;;;;179.40;2252.80;;;;;;4964943;28;20000;-76
2022/01/06 03:21:43;;;;;;;;;;;179.40;2252.80;;;;;;4959269;29;19961;-76
2022/01/06 03:24:09;;;;;;;;;;;179.50;2252.80;;;;;;4977653;28;19906;-77
2022/01/06 03:26:34;;;;;;;;;;;179.50;2252.80;;;;;;4978527;28;20366;-78
2022/01/06 03:29:00;;;;;;;;;;;179.50;2252.80;;;;;;4978545;28;19906;-74
2022/01/06 03:31:25;;;;;;;;;;;179.50;2252.80;;;;;;4977344;28;20349;-75
2022/01/06 03:33:51;;;;;;;;;;;179.40;2252.80;;;;;;4978422;28;19910;-76
2022/01/06 03:36:17;;;;;;;;;;;179.40;2252.80;;;;;;4978453;28;19972;-74
2022/01/06 03:38:42;;;;;;;;;;;179.40;2252.80;;;;;;4978357;28;20397;-75
2022/01/06 03:41:08;;;;;;;;;;;179.20;2252.80;;;;;;4978124;28;19909;-76
2022/01/06 03:43:33;;;;;;;;;;;179.30;2252.80;;;;;;4978363;28;19961;-79
2022/01/06 03:45:59;;;;;;;;;;;179.30;2252.80;;;;;;4978320;28;19912;-77
2022/01/06 03:48:24;;;;;;;;;;;179.40;2252.80;;;;;;4978171;28;19909;-78
2022/01/06 03:50:50;;;;;;;;;;;179.30;2252.80;;;;;;4978299;28;19917;-74
2022/01/06 03:53:16;;;;;;;;;;;179.40;2252.80;;;;;;4978156;28;19956;-78
2022/01/06 03:55:41;;;;;;;;;;;179.50;2252.80;;;;;;4977993;28;20285;-79
2022/01/06 03:58:10;;;;;;;;;;;179.80;2252.80;;;;;;4978285;28;19906;-79
2022/01/06 04:00:35;;;;;;;;;;;179.90;2252.80;;;;;;4978015;28;19914;-77
2022/01/06 04:03:01;;;;;;;;;;;204.80;2252.80;;;;;;4978012;28;19993;-76
2022/01/06 04:05:27;;;;;;;;;;;204.90;2252.80;;;;;;4978161;28;19913;-76
2022/01/06 04:07:52;;;;;;;;;;;205.10;2252.80;;;;;;4977930;28;19910;-82
2022/01/06 04:10:18;;;;;;;;;;;205.20;2252.80;;;;;;4976947;28;20289;-76
2022/01/06 04:12:43;;;;;;;;;;;205.20;2252.80;;;;;;4977181;28;19913;-82
2022/01/06 04:15:12;;;;;;;;;;;205.10;2252.80;;;;;;4978166;28;19977;-78
2022/01/06 04:17:37;;;;;;;;;;;205.00;2252.80;;;;;;4977829;28;19953;-80
2022/01/06 04:20:04;;;;;;;;;;;204.90;2252.80;;;;;;4977613;28;20330;-79
2022/01/06 04:22:29;;;;;;;;;;;204.90;2252.80;;;;;;4972320;28;19957;-75
2022/01/06 04:24:55;;;;;;;;;;;204.90;2252.80;;;;;;4941400;29;19938;-78
2022/01/06 04:27:20;;;;;;;;;;;180.10;2252.80;;;;;;4958277;29;19961;-78
2022/01/06 04:29:46;;;;;;;;;;;204.80;2252.80;;;;;;4958476;29;19945;-78
2022/01/06 04:32:11;;;;;;;;;;;204.90;2252.80;;;;;;4941014;29;20273;-77
2022/01/06 04:34:37;;;;;;;;;;;204.90;2252.80;;;;;;4940989;29;19910;-78
2022/01/06 04:37:03;;;;;;;;;;;180.10;2252.80;;;;;;4958238;29;20326;-75
2022/01/06 04:39:28;;;;;;;;;;;204.80;2252.80;;;;;;4957887;29;19919;-75
2022/01/06 04:41:54;;;;;;;;;;;180.10;2252.80;;;;;;4940630;29;19914;-76
2022/01/06 04:44:19;;;;;;;;;;;204.90;2252.80;;;;;;4940458;29;19914;-78
2022/01/06 04:46:45;;;;;;;;;;;180.10;2252.80;;;;;;4957941;29;19914;-77
2022/01/06 04:49:11;;;;;;;;;;;180.10;2252.80;;;;;;4957760;29;19921;-77
2022/01/06 04:51:36;;;;;;;;;;;180.00;2252.80;;;;;;4957962;29;19917;-78
2022/01/06 04:54:02;;;;;;;;;;;180.00;2252.80;;;;;;4957821;29;20001;-78
2022/01/06 04:56:35;;;;;;;;;;;180.10;2252.80;;;;;;4957725;29;19915;-76
2022/01/06 04:59:02;;;;;;;;;;;179.90;2252.80;;;;;;4940596;29;19911;-76
2022/01/06 05:01:28;;;;;;;;;;;180.00;2252.80;;;;;;4958050;29;19915;-80
2022/01/06 05:03:53;;;;;;;;;;;180.00;2252.80;;;;;;4958098;29;19917;-78
2022/01/06 05:06:19;;;;;;;;;;;180.00;2252.80;;;;;;4940735;29;20359;-75
2022/01/06 05:08:44;;;;;;;;;;;180.00;2252.80;;;;;;4957923;29;19906;-76
2022/01/06 05:11:10;;;;;;;;;;;180.00;2252.80;;;;;;4940491;29;20000;-80
2022/01/06 05:13:35;;;;;;;;;;;180.10;2252.80;;;;;;4940603;29;20315;-79
2022/01/06 05:16:01;;;;;;;;;;;180.10;2252.80;;;;;;4957960;29;19914;-80
2022/01/06 05:18:27;;;;;;;;;;;180.00;2252.80;;;;;;4957506;29;20037;-78
2022/01/06 05:20:52;;;;;;;;;;;180.10;2252.80;;;;;;4957341;29;19921;-80
2022/01/06 05:23:19;;;;;;;;;;;180.10;2252.80;;;;;;4968941;28;20286;-79
2022/01/06 05:25:45;;;;;;;;;;;180.00;2252.80;;;;;;4976707;28;19962;-80
2022/01/06 05:28:11;;;;;;;;;;;179.90;2252.80;;;;;;4976647;28;19910;-80
2022/01/06 05:30:36;;;;;;;;;;;179.90;2252.80;;;;;;4975359;28;20266;-75
2022/01/06 05:33:02;;;;;;;;;;;179.80;2252.80;;;;;;4976583;28;19906;-79
2022/01/06 05:35:27;;;;;;;;;;;179.90;2252.80;;;;;;4976809;28;19906;-79
2022/01/06 05:37:53;;;;;;;;;;;179.90;2252.80;;;;;;4976645;28;20370;-75
2022/01/06 05:40:19;;;;;;;;;;;179.80;2252.80;;;;;;4976134;28;20393;-78
2022/01/06 05:42:44;;;;;;;;;;;179.70;2252.80;;;;;;4976320;28;19906;-79
2022/01/06 05:45:11;;;;;;;;;;;179.60;2252.80;;;;;;4976519;28;20001;-81
2022/01/06 05:47:37;;;;;;;;;;;179.80;2252.80;;;;;;4976716;28;19906;-81
2022/01/06 05:50:04;;;;;;;;;;;179.70;2252.80;;;;;;4976297;28;19917;-81
2022/01/06 05:52:29;;;;;;;;;;;179.60;2252.80;;;;;;4959022;28;20340;-79
2022/01/06 05:54:55;;;;;;;;;;;179.80;2252.80;;;;;;4976155;28;19953;-78
2022/01/06 05:57:21;;;;;;;;;;;179.60;2252.80;;;;;;4974918;28;19910;-79
2022/01/06 05:59:46;;;;;;;;;;;179.40;2252.80;;;;;;4976069;28;19921;-80
2022/01/06 06:02:12;;;;;;;;;;;179.40;2252.80;;;;;;4974668;28;20362;-81
2022/01/06 06:04:37;;;;;;;;;;;179.60;2252.80;;;;;;4975953;28;19964;-80
2022/01/06 06:07:03;;;;;;;;;;;179.70;2252.80;;;;;;4976003;28;19906;-77
2022/01/06 06:09:29;;;;;;;;;;;179.70;2252.80;;;;;;4974873;28;19989;-80
2022/01/06 06:11:54;;;;;;;;;;;179.70;2252.80;;;;;;4976046;28;20310;-81
2022/01/06 06:14:20;;;;;;;;;;;179.70;2252.80;;;;;;4975985;28;19913;-75
2022/01/06 06:16:45;;;;;;;;;;;179.70;2252.80;;;;;;4975979;28;20000;-79
2022/01/06 06:19:11;;;;;;;;;;;179.70;2252.80;;;;;;4975810;28;19941;-79
2022/01/06 06:21:36;;;;;;;;;;;179.90;2252.80;;;;;;4975729;28;20274;-75
2022/01/06 06:24:02;;;;;;;;;;;179.90;2252.80;;;;;;4975781;28;19910;-78
2022/01/06 06:26:28;;;;;;;;;;;180.00;2252.80;;;;;;4975557;28;19910;-79
2022/01/06 06:28:53;;;;;;;;;;;179.80;2252.80;;;;;;4975689;28;19970;-75
2022/01/06 06:31:19;;;;;;;;;;;179.60;2252.80;;;;;;4975680;28;19921;-78
2022/01/06 06:33:44;;;;;;;;;;;179.50;2252.80;;;;;;4958166;28;19910;-77
2022/01/06 06:36:10;;;;;;;;;;;179.60;2252.80;;;;;;4975285;28;19906;-76
2022/01/06 06:38:36;;;;;;;;;;;179.70;2252.80;;;;;;4957579;28;19996;-79
2022/01/06 06:41:01;;;;;;;;;;;179.70;2252.80;;;;;;4975665;28;19914;-80
2022/01/06 06:43:27;;;;;;;;;;;179.60;2252.80;;;;;;4975497;28;19965;-80
2022/01/06 06:45:52;;;;;;;;;;;179.70;2252.80;;;;;;4975516;28;19907;-81
2022/01/06 06:48:19;;;;;;;;;;;179.70;2252.80;;;;;;4958423;28;20390;-79
2022/01/06 06:50:44;;;;;;;;;;;179.90;2252.80;;;;;;4975215;28;19917;-79
2022/01/06 06:53:10;;;;;;;;;;;179.90;2252.80;;;;;;4958587;28;19910;-79
2022/01/06 06:55:36;;;;;;;;;;;180.10;2252.80;;;;;;4975662;28;19913;-82
2022/01/06 06:58:02;;;;;;;;;;;179.90;2252.80;;;;;;4958428;28;19906;-83
2022/01/06 07:00:28;;;;;;;;;;;179.70;2252.80;;;;;;4975188;28;19925;-80
2022/01/06 07:02:53;;;;;;;;;;;179.70;2252.80;;;;;;4957853;28;19910;-80
2022/01/06 07:05:19;;;;;;;;;;;179.90;2252.80;;;;;;4975523;28;19906;-75
2022/01/06 07:07:45;;;;;;;;;;;180.00;2252.80;;;;;;4975542;28;20278;-79
2022/01/06 07:10:11;;;;;;;;;;;180.00;2252.80;;;;;;4975724;28;19906;-81
2022/01/06 07:12:40;;;;;;;;;;;180.00;2252.80;;;;;;4975035;28;20374;-75
2022/01/06 07:15:06;;;;;;;;;;;180.10;2252.80;;;;;;4975291;28;19953;-83
2022/01/06 07:17:32;;;;;;;;;;;180.10;2252.80;;;;;;4975658;28;20005;-76
2022/01/06 07:19:58;;;;;;;;;;;204.80;2252.80;;;;;;4975059;28;20016;-79
2022/01/06 07:22:23;;;;;;;;;;;204.80;2252.80;;;;;;4953477;29;20001;-85
2022/01/06 07:24:49;;;;;;;;;;;180.10;2252.80;;;;;;4958194;28;19906;-79
2022/01/06 07:27:14;;;;;;;;;;;180.10;2252.80;;;;;;4963793;28;19964;-79
2022/01/06 07:29:40;;;;;;;;;;;180.10;2252.80;;;;;;4966332;28;20326;-76
2022/01/06 07:32:05;;;;;;;;;;;180.00;2252.80;;;;;;4956518;28;19961;-79
2022/01/06 07:34:31;;;;;;;;;;;180.00;2252.80;;;;;;4962313;28;19938;-78
2022/01/06 07:36:57;;;;;;;;;;;180.10;2252.80;;;;;;4964049;28;20004;-78
2022/01/06 07:39:22;;;;;;;;;;;180.10;2252.80;;;;;;4964769;28;20041;-79
2022/01/06 07:41:48;;;;;;;;;;;204.80;2252.80;;;;;;4974784;28;20004;-77
2022/01/06 07:44:14;;;;;;;;;;;204.80;2252.80;;;;;;4975212;28;19914;-80
2022/01/06 07:46:41;;;;;;;;;;;180.10;2252.80;;;;;;4977446;28;19913;-81
2022/01/06 07:49:07;;;;;;;;;;;180.00;2252.80;;;;;;4978464;28;19913;-79
2022/01/06 07:51:32;;;;;;;;;;;180.10;2252.80;;;;;;4962057;28;19914;-76
2022/01/06 07:53:59;;;;;;;;;;;204.80;2252.80;;;;;;4968232;28;19911;-78
2022/01/06 07:56:25;;;;;;;;;;;204.80;2252.80;;;;;;4967394;28;19912;-78
2022/01/06 07:58:50;;;;;;;;;;;204.80;2252.80;;;;;;4967059;28;19989;-75
2022/01/06 08:01:16;;;;;;;;;;;180.10;2252.80;;;;;;4968694;28;19915;-75
2022/01/06 08:03:42;;;;;;;;;;;204.80;2252.80;;;;;;4968747;28;19920;-78
2022/01/06 08:06:08;;;;;;;;;;;204.80;2252.80;;;;;;4977009;28;19917;-79
2022/01/06 08:08:34;;;;;;;;;;;204.90;2252.80;;;;;;4960593;28;19906;-77
2022/01/06 08:10:59;;;;;;;;;;;204.90;2252.80;;;;;;4977976;28;20250;-77
2022/01/06 08:13:25;;;;;;;;;;;204.90;2252.80;;;;;;4976678;28;20366;-78
2022/01/06 08:15:51;;;;;;;;;;;204.90;2252.80;;;;;;4977745;28;19906;-76
2022/01/06 08:18:16;;;;;;;;;;;205.00;2252.80;;;;;;4977653;28;20002;-77
2022/01/06 08:20:42;;;;;;;;;;;205.00;2252.80;;;;;;4976211;28;19957;-77
2022/01/06 08:23:08;;;;;;;;;;;205.10;2252.80;;;;;;4977517;28;19921;-76
2022/01/06 08:25:34;;;;;;;;;;;205.00;2252.80;;;;;;4977389;28;19906;-76
2022/01/06 08:27:59;;;;;;;;;;;204.90;2252.80;;;;;;4977690;28;19906;-78
2022/01/06 08:30:25;;;;;;;;;;;204.80;2252.80;;;;;;4959946;28;20354;-77
2022/01/06 08:32:51;;;;;;;;;;;204.80;2252.80;;;;;;4960105;28;19906;-77
2022/01/06 08:35:16;;;;;;;;;;;204.80;2252.80;;;;;;4977410;28;19910;-76
2022/01/06 08:37:43;;;;;;;;;;;204.80;2252.80;;;;;;4959993;28;19948;-79
2022/01/06 08:40:09;;;;;;;;;;;204.80;2252.80;;;;;;4969627;28;19922;-77
2022/01/06 08:42:34;;;;;;;;;;;204.80;2252.80;;;;;;4976138;28;19972;-77
2022/01/06 08:45:00;;;;;;;;;;;180.10;2252.80;;;;;;4977208;28;20354;-76
2022/01/06 08:47:25;;;;;;;;;;;180.10;2252.80;;;;;;4977187;28;19906;-79
2022/01/06 08:49:51;;;;;;;;;;;180.10;2252.80;;;;;;4977249;28;19917;-80
2022/01/06 08:52:17;;;;;;;;;;;204.80;2252.80;;;;;;4977350;28;19918;-79
2022/01/06 08:54:42;;;;;;;;;;;204.80;2252.80;;;;;;4976177;28;19961;-79
2022/01/06 08:57:08;;;;;;;;;;;204.80;2252.80;;;;;;4976400;28;19913;-76
2022/01/06 08:59:33;;;;;;;;;;;204.80;2252.80;;;;;;4970880;28;19970;-75
2022/01/06 09:01:59;;;;;;;;;;;180.10;2252.80;;;;;;4966806;28;20004;-77
2022/01/06 09:04:25;;;;;;;;;;;180.00;2252.80;;;;;;4968044;28;19921;-77
2022/01/06 09:06:51;;;;;;;;;;;204.80;2252.80;;;;;;4957355;29;19997;-76
2022/01/06 09:09:17;;;;;;;;;;;180.00;2252.80;;;;;;4963482;28;19910;-79
2022/01/06 09:11:43;;;;;;;;;;;180.10;2252.80;;;;;;4965052;28;20358;-79
2022/01/06 09:14:09;;;;;;;;;;;204.80;2252.80;;;;;;4967206;28;19925;-76
2022/01/06 09:16:34;;;;;;;;;;;180.10;2252.80;;;;;;4967364;28;19913;-78
2022/01/06 09:19:00;;;;;;;;;;;180.00;2252.80;;;;;;4964309;28;20437;-79
2022/01/06 09:21:25;;;;;;;;;;;180.00;2252.80;;;;;;4974510;28;19910;-83
2022/01/06 09:23:52;;;;;;;;;;;180.00;2252.80;;;;;;4965024;28;19910;-79
2022/01/06 09:26:18;;;;;;;;;;;179.90;2252.80;;;;;;4969597;28;19968;-82
2022/01/06 09:28:44;;;;;;;;;;;179.80;2252.80;;;;;;4976731;28;19910;-79
2022/01/06 09:31:09;;;;;;;;;;;179.90;2252.80;;;;;;4968260;28;19910;-76
2022/01/06 09:33:35;;;;;;;;;;;179.80;2252.80;;;;;;4965547;28;19906;-79
2022/01/06 09:36:02;;;;;;;;;;;180.00;2252.80;;;;;;4968131;28;19906;-79
2022/01/06 09:38:27;;;;;;;;;;;180.00;2252.80;;;;;;4975148;28;19929;-78
2022/01/06 09:40:53;;;;;;;;;;;180.00;2252.80;;;;;;4976189;28;20366;-78
2022/01/06 09:43:25;;;;;;;;;;;179.90;2252.80;;;;;;4958652;28;19914;-80
2022/01/06 09:45:51;;;;;;;;;;;179.90;2252.80;;;;;;4975646;28;20265;-76
2022/01/06 09:48:19;;;;;;;;;;;179.70;2252.80;;;;;;4965543;28;19910;-74
2022/01/06 09:50:45;;;;;;;;;;;179.70;2252.80;;;;;;4965214;28;19910;-76
2022/01/06 09:53:11;;;;;;;;;;;179.70;2252.80;;;;;;4957311;28;20285;-78
2022/01/06 09:55:40;;;;;;;;;;;179.70;2252.80;;;;;;4964158;28;19974;-77
2022/01/06 09:58:06;;;;;;;;;;;179.80;2252.80;;;;;;4961285;28;19918;-77
2022/01/06 10:00:33;;;;;;;;;;;179.90;2252.80;;;;;;4966905;28;19918;-77
2022/01/06 10:03:06;;;;;;;;;;;179.90;2252.80;;;;;;4964745;28;19917;-76
2022/01/06 10:05:39;;;;;;;;;;;179.80;2252.80;;;;;;4965855;28;19932;-76
2022/01/06 10:08:05;;;;;;;;;;;179.90;2252.80;;;;;;4965567;28;19913;-77
2022/01/06 10:10:30;;;;;;;;;;;179.70;2252.80;;;;;;4963889;28;19910;-77
2022/01/06 10:12:59;;;;;;;;;;;179.70;2252.80;;;;;;4963862;28;20248;-76
2022/01/06 10:15:27;;;;;;;;;;;179.70;2252.80;;;;;;4964138;28;19909;-77
2022/01/06 10:17:53;;;;;;;;;;;179.70;2252.80;;;;;;4964200;28;19914;-77
2022/01/06 10:20:20;;;;;;;;;;;179.70;2252.80;;;;;;4965976;28;19966;-78
2022/01/06 10:23:09;;;;;;;;;;;179.70;2252.80;;;;;;4967115;28;20421;-77
2022/01/06 10:25:38;;;;;;;;;;;179.70;2252.80;;;;;;4975448;28;20008;-76
2022/01/06 10:28:15;;;;;;;;;;;179.90;2252.80;;;;;;4975491;28;19906;-77
2022/01/06 10:30:47;;;;;;;;;;;180.00;2252.80;;;;;;4975298;28;20358;-76
2022/01/06 10:33:19;;;;;;;;;;;180.00;2252.80;;;;;;4974758;28;19906;-77
2022/01/06 10:35:45;;;;;;;;;;;180.10;2252.80;;;;;;4945723;28;19912;-77
2022/01/06 10:38:11;;;;;;;;;;;180.00;2252.80;;;;;;4965261;28;19961;-78
2022/01/06 10:40:38;;;;;;;;;;;179.90;2252.80;;;;;;4963529;28;19922;-76
2022/01/06 10:43:05;;;;;;;;;;;179.90;2252.80;;;;;;4946535;28;19906;-78
2022/01/06 10:45:32;;;;;;;;;;;179.70;2252.80;;;;;;4964952;28;19910;-78
2022/01/06 10:48:00;;;;;;;;;;;179.70;2252.80;;;;;;4972999;28;19906;-78
2022/01/06 10:50:29;;;;;;;;;;;179.70;2252.80;;;;;;4975028;28;19941;-77
2022/01/06 10:52:56;;;;;;;;;;;179.70;2252.80;;;;;;4975167;28;19910;-79
2022/01/06 10:55:27;;;;;;;;;;;179.70;2252.80;;;;;;4975324;28;19915;-78
2022/01/06 10:57:54;;;;;;;;;;;179.90;2252.80;;;;;;4958021;28;19906;-80
2022/01/06 11:00:21;;;;;;;;;;;179.70;2252.80;;;;;;4975107;28;19914;-80
2022/01/06 11:02:46;;;;;;;;;;;179.70;2252.80;;;;;;4975200;28;19906;-79
2022/01/06 11:05:12;;;;;;;;;;;179.40;2252.80;;;;;;4957493;28;19906;-76
2022/01/06 11:07:37;;;;;;;;;;;179.40;2252.80;;;;;;4957508;28;19913;-78
2022/01/06 11:10:13;;;;;;;;;;;179.60;2252.80;;;;;;4975033;28;20269;-77
2022/01/06 11:12:38;;;;;;;;;;;179.70;2252.80;;;;;;4975021;28;20378;-76
2022/01/06 11:15:04;;;;;;;;;;;179.70;2252.80;;;;;;4975022;28;20000;-80
2022/01/06 11:17:30;;;;;;;;;;;179.70;2252.80;;;;;;4975271;28;19906;-85
2022/01/06 11:19:56;;;;;;;;;;;179.90;2252.80;;;;;;4957720;28;20546;-76
2022/01/06 11:22:25;;;;;;;;;;;179.80;2252.80;;;;;;4974676;28;19910;-82
2022/01/06 11:24:53;;;;;;;;;;;179.80;2252.80;;;;;;4942569;29;20348;-75
2022/01/06 11:27:29;;;;;;;;;;;179.80;2252.80;;;;;;4959541;29;19985;-76
2022/01/06 11:29:54;;;;;;;;;;;179.80;2252.80;;;;;;4942369;29;19912;-79
2022/01/06 11:32:23;;;;;;;;;;;179.90;2252.80;;;;;;4942140;29;19981;-79
2022/01/06 11:35:12;;;;;;;;;;;179.90;2252.80;;;;;;4959570;29;20383;-75
2022/01/06 11:37:41;;;;;;;;;;;179.90;2252.80;;;;;;4900558;29;19994;-77
2022/01/06 11:40:07;;;;;;;;;;;180.00;2252.80;;;;;;4884748;29;19920;-82
2022/01/06 11:42:32;;;;;;;;;;;180.10;2252.80;;;;;;4900279;29;19907;-76
2022/01/06 11:44:59;;;;;;;;;;;204.80;2252.80;;;;;;4898568;29;19962;-78
2022/01/06 11:47:28;;;;;;;;;;;204.90;2252.80;;;;;;4919177;29;20005;-76
2022/01/06 11:50:05;;;;;;;;;;;204.90;2252.80;;;;;;4918787;29;19934;-80
2022/01/06 11:52:30;;;;;;;;;;;205.00;2252.80;;;;;;4919312;29;19911;-80
2022/01/06 11:54:56;;;;;;;;;;;205.00;2252.80;;;;;;4919250;29;20002;-81
2022/01/06 11:57:35;;;;;;;;;;;204.80;2252.80;;;;;;4902845;29;19922;-80
2022/01/06 12:00:13;;;;;;;;;;;204.80;2252.80;;;;;;4903098;29;19915;-79
2022/01/06 12:02:38;;;;;;;;;;;204.80;2252.80;;;;;;4918998;29;19942;-77
2022/01/06 12:05:04;;;;;;;;;;;204.80;2252.80;;;;;;4918937;29;20398;-80
2022/01/06 12:07:30;;;;;;;;;;;204.90;2252.80;;;;;;4918607;29;19911;-83
2022/01/06 12:10:06;;;;;;;;;;;180.00;2252.80;;;;;;4918600;29;19907;-80
2022/01/06 12:12:36;;;;;;;;;;;204.80;2252.80;;;;;;4902424;29;19918;-80
2022/01/06 12:15:14;;;;;;;;;;;204.90;2252.80;;;;;;4928177;29;20358;-81
2022/01/06 12:17:45;;;;;;;;;;;204.80;2252.80;;;;;;4958497;29;19906;-76
2022/01/06 12:20:11;;;;;;;;;;;204.80;2252.80;;;;;;4958355;28;19918;-78
2022/01/06 12:22:36;;;;;;;;;;;204.90;2252.80;;;;;;4964499;28;19917;-77
2022/01/06 12:25:06;;;;;;;;;;;204.90;2252.80;;;;;;4976412;28;20457;-77
2022/01/06 12:27:32;;;;;;;;;;;205.00;2252.80;;;;;;4977465;28;19906;-77
2022/01/06 12:29:57;;;;;;;;;;;205.20;2252.80;;;;;;4959913;28;19960;-82
2022/01/06 12:32:24;;;;;;;;;;;205.00;2252.80;;;;;;4967291;28;19922;-78
2022/01/06 12:34:51;;;;;;;;;;;205.10;2252.80;;;;;;4957578;28;19913;-79
2022/01/06 12:37:23;;;;;;;;;;;205.20;2252.80;;;;;;4958568;28;19913;-79
2022/01/06 12:39:49;;;;;;;;;;;205.20;2252.80;;;;;;4961040;28;20275;-80
2022/01/06 12:42:15;;;;;;;;;;;205.20;2252.80;;;;;;4978480;28;19922;-81
2022/01/06 12:44:41;;;;;;;;;;;205.10;2252.80;;;;;;4964971;28;20281;-78
2022/01/06 12:47:08;;;;;;;;;;;205.00;2252.80;;;;;;4964505;28;20271;-80
2022/01/06 12:49:33;;;;;;;;;;;204.80;2252.80;;;;;;4972632;28;20244;-77
2022/01/06 12:51:59;;;;;;;;;;;204.90;2252.80;;;;;;4968138;28;19921;-80
2022/01/06 12:54:25;;;;;;;;;;;205.10;2252.80;;;;;;4984089;28;19910;-78
2022/01/06 12:56:53;;;;;;;;;;;205.20;2252.80;;;;;;4967635;28;19907;-78
2022/01/06 12:59:23;;;;;;;;;;;205.20;2252.80;;;;;;4971477;28;19918;-79
2022/01/06 13:01:54;;;;;;;;;;;205.30;2252.80;;;;;;4976740;28;19906;-77
2022/01/06 13:04:22;;;;;;;;;;;205.20;2252.80;;;;;;4976627;28;19949;-79
2022/01/06 13:06:48;;;;;;;;;;;205.00;2252.80;;;;;;4960062;28;19906;-79
2022/01/06 13:09:15;;;;;;;;;;;205.10;2252.80;;;;;;4957357;28;20355;-76
2022/01/06 13:11:45;;;;;;;;;;;204.80;2252.80;;;;;;4957133;28;19906;-74
2022/01/06 13:14:10;;;;;;;;;;;204.80;2252.80;;;;;;4957295;28;19907;-75
2022/01/06 13:16:36;;;;;;;;;;;204.90;2252.80;;;;;;4967452;28;20388;-76
2022/01/06 13:19:02;;;;;;;;;;;205.00;2252.80;;;;;;4965631;28;19906;-76
2022/01/06 13:21:31;;;;;;;;;;;204.80;2252.80;;;;;;4962133;28;19949;-75
2022/01/06 13:23:58;;;;;;;;;;;204.90;2252.80;;;;;;4963082;28;19993;-76
2022/01/06 13:26:25;;;;;;;;;;;204.90;2252.80;;;;;;4966989;28;19907;-76
2022/01/06 13:28:58;;;;;;;;;;;180.10;2252.80;;;;;;4966513;28;20278;-74
2022/01/06 13:31:25;;;;;;;;;;;204.90;2252.80;;;;;;4979737;28;19906;-75
2022/01/06 13:33:55;;;;;;;;;;;204.90;2252.80;;;;;;4966997;28;19989;-78
2022/01/06 13:36:32;;;;;;;;;;;204.80;2252.80;;;;;;4966284;28;20345;-74
2022/01/06 13:39:05;;;;;;;;;;;204.80;2252.80;;;;;;4964218;28;19969;-76
2022/01/06 13:41:31;;;;;;;;;;;204.80;2252.80;;;;;;4964769;28;19918;-76
2022/01/06 13:43:58;;;;;;;;;;;180.10;2252.80;;;;;;4964205;28;19906;-75
2022/01/06 13:46:29;;;;;;;;;;;180.00;2252.80;;;;;;4964940;28;19906;-78